createdAt,value
2018-04-20T00:00:41.521Z,48.3
2018-04-20T00:01:41.254Z,48.88
2018-04-20T00:02:41.496Z,48.75
2018-04-20T00:03:41.460Z,48.66
2018-04-20T00:04:41.444Z,48.95
2018-04-20T00:05:41.174Z,48.88
2018-04-20T00:06:41.403Z,48.95
2018-04-20T00:07:41.384Z,49.24
2018-04-20T00:08:41.366Z,49.81
2018-04-20T00:09:41.349Z,49.52
2018-04-20T00:10:41.321Z,49.71
2018-04-20T00:11:41.315Z,49.43
2018-04-20T00:12:41.285Z,49.71
2018-04-20T00:13:41.021Z,49.05
2018-04-20T00:14:41.244Z,49.33
2018-04-20T00:15:40.973Z,49.14
2018-04-20T00:16:41.206Z,49.14
2018-04-20T00:17:41.183Z,49.14
2018-04-20T00:18:41.168Z,49.43
2018-04-20T00:19:41.144Z,49.43
2018-04-20T00:20:41.124Z,49.33
2018-04-20T00:21:40.852Z,49.52
2018-04-20T00:22:40.833Z,49.43
2018-04-20T00:23:41.060Z,49.33
2018-04-20T00:24:41.043Z,49.43
2018-04-20T00:25:41.019Z,49.33
2018-04-20T00:26:41.000Z,49.33
2018-04-20T00:27:40.982Z,50.1
2018-04-20T00:28:41.021Z,48.95
2018-04-20T00:29:40.940Z,48.85
2018-04-20T00:30:40.920Z,49.05
2018-04-20T00:31:40.901Z,49.05
2018-04-20T00:32:40.881Z,49.62
2018-04-20T00:33:40.858Z,49.71
2018-04-20T00:34:40.888Z,49.52
2018-04-20T00:35:40.820Z,49.62
2018-04-20T00:36:40.548Z,49.71
2018-04-20T00:37:40.782Z,49.24
2018-04-20T00:38:40.759Z,49.24
2018-04-20T00:39:40.736Z,48.85
2018-04-20T00:40:40.720Z,48.85
2018-04-20T00:41:40.694Z,48.85
2018-04-20T00:42:40.676Z,48.75
2018-04-20T00:43:40.655Z,48.85
2018-04-20T00:44:40.388Z,48.75
2018-04-20T00:45:40.617Z,48.75
2018-04-20T00:46:40.350Z,48.88
2018-04-20T00:47:40.325Z,48.4
2018-04-20T00:48:40.560Z,48.59
2018-04-20T00:49:40.534Z,48.59
2018-04-20T00:50:40.518Z,48.3
2018-04-20T00:51:40.500Z,48.4
2018-04-20T00:52:40.476Z,48.49
2018-04-20T00:53:40.454Z,48.59
2018-04-20T00:54:40.443Z,48.59
2018-04-20T00:55:40.167Z,48.78
2018-04-20T00:56:40.393Z,48.49
2018-04-20T00:57:40.373Z,48.69
2018-04-20T00:58:40.355Z,48.11
2018-04-20T00:59:40.333Z,48.02
2018-04-20T01:00:40.347Z,48.02
2018-04-20T01:01:40.292Z,47.82
2018-04-20T01:02:40.274Z,47.73
2018-04-20T01:03:40.253Z,47.73
2018-04-20T01:04:40.231Z,47.73
2018-04-20T01:05:40.211Z,47.92
2018-04-20T01:06:40.189Z,47.73
2018-04-20T01:07:40.175Z,47.44
2018-04-20T01:08:40.159Z,47.37
2018-04-20T01:09:40.131Z,47.44
2018-04-20T01:10:40.118Z,47.56
2018-04-20T01:11:39.847Z,48.11
2018-04-20T01:12:40.078Z,47.82
2018-04-20T01:13:40.058Z,48.11
2018-04-20T01:14:40.034Z,48.02
2018-04-20T01:15:40.017Z,48.02
2018-04-20T01:16:39.991Z,48.11
2018-04-20T01:17:39.972Z,48.21
2018-04-20T01:18:39.950Z,48.3
2018-04-20T01:19:39.683Z,48.78
2018-04-20T01:20:39.914Z,48.78
2018-04-20T01:21:39.892Z,48.4
2018-04-20T01:22:39.623Z,48.78
2018-04-20T01:23:39.851Z,48.49
2018-04-20T01:24:39.830Z,48.59
2018-04-20T01:25:39.815Z,48.49
2018-04-20T01:26:39.797Z,48.69
2018-04-20T01:27:39.521Z,48.78
2018-04-20T01:28:39.750Z,48.97
2018-04-20T01:29:39.483Z,48.69
2018-04-20T01:30:39.712Z,49.05
2018-04-20T01:31:39.687Z,48.97
2018-04-20T01:32:39.420Z,48.88
2018-04-20T01:33:39.652Z,49.71
2018-04-20T01:34:39.626Z,49.55
2018-04-20T01:35:39.614Z,49.55
2018-04-20T01:36:39.595Z,49.24
2018-04-20T01:37:39.320Z,49.05
2018-04-20T01:38:39.556Z,49.14
2018-04-20T01:39:39.279Z,49.62
2018-04-20T01:40:39.507Z,49.52
2018-04-20T01:41:39.501Z,50.1
2018-04-20T01:42:39.223Z,49.81
2018-04-20T01:43:39.449Z,49.81
2018-04-20T01:44:39.429Z,49.91
2018-04-20T01:45:39.404Z,49.81
2018-04-20T01:46:39.139Z,50.38
2018-04-20T01:47:39.367Z,50.1
2018-04-20T01:48:39.359Z,50.29
2018-04-20T01:49:39.324Z,50
2018-04-20T01:50:39.059Z,49.98
2018-04-20T01:51:39.283Z,50.2
2018-04-20T01:52:39.266Z,50.2
2018-04-20T01:53:39.246Z,50.26
2018-04-20T01:54:38.974Z,50.07
2018-04-20T01:55:39.324Z,50.36
2018-04-20T01:56:38.933Z,50.36
2018-04-20T01:57:38.913Z,50.36
2018-04-20T01:58:39.139Z,49.98
2018-04-20T01:59:39.122Z,50.36
2018-04-20T02:00:39.100Z,50.46
2018-04-20T02:01:39.081Z,50.93
2018-04-20T02:02:39.063Z,50.93
2018-04-20T02:03:39.044Z,50.93
2018-04-20T02:04:39.017Z,50.93
2018-04-20T02:05:39.004Z,50.65
2018-04-20T02:06:38.983Z,50.65
2018-04-20T02:07:38.956Z,50.65
2018-04-20T02:08:38.686Z,50.93
2018-04-20T02:09:38.918Z,51.42
2018-04-20T02:10:38.897Z,51.32
2018-04-20T02:11:38.881Z,51.22
2018-04-20T02:12:38.855Z,51.32
2018-04-20T02:13:38.839Z,50.93
2018-04-20T02:14:39.108Z,50.84
2018-04-20T02:15:38.947Z,51.13
2018-04-20T02:16:38.527Z,51.7
2018-04-20T02:17:38.754Z,51.03
2018-04-20T02:18:38.738Z,51.51
2018-04-20T02:19:38.462Z,51.51
2018-04-20T02:20:38.694Z,51.13
2018-04-20T02:21:38.669Z,51.22
2018-04-20T02:22:38.659Z,51.48
2018-04-20T02:23:38.630Z,51.03
2018-04-20T02:24:38.608Z,51.7
2018-04-20T02:25:38.341Z,51.39
2018-04-20T02:26:38.567Z,51.2
2018-04-20T02:27:38.550Z,51.2
2018-04-20T02:28:38.277Z,51.68
2018-04-20T02:29:38.505Z,51.58
2018-04-20T02:30:38.483Z,51.77
2018-04-20T02:31:38.472Z,51.68
2018-04-20T02:32:38.444Z,51.39
2018-04-20T02:33:38.422Z,52.15
2018-04-20T02:34:38.402Z,51.58
2018-04-20T02:35:38.380Z,51.58
2018-04-20T02:36:38.364Z,51.58
2018-04-20T02:37:38.092Z,51.39
2018-04-20T02:38:38.322Z,51.68
2018-04-20T02:39:38.055Z,51.39
2018-04-20T02:40:38.278Z,51.48
2018-04-20T02:41:38.257Z,51.1
2018-04-20T02:42:37.988Z,51.48
2018-04-20T02:43:38.217Z,51.51
2018-04-20T02:44:38.197Z,51.39
2018-04-20T02:45:38.176Z,51.2
2018-04-20T02:46:38.157Z,51.51
2018-04-20T02:47:38.133Z,51.01
2018-04-20T02:48:38.112Z,51.2
2018-04-20T02:49:37.844Z,50.93
2018-04-20T02:50:38.077Z,50.74
2018-04-20T02:51:38.051Z,51.48
2018-04-20T02:52:38.031Z,51.61
2018-04-20T02:53:37.760Z,51.22
2018-04-20T02:54:38.011Z,50.74
2018-04-20T02:55:37.966Z,51.42
2018-04-20T02:56:37.953Z,50.74
2018-04-20T02:57:37.934Z,50.56
2018-04-20T02:58:37.907Z,51.03
2018-04-20T02:59:37.881Z,50.65
2018-04-20T03:00:37.892Z,50.36
2018-04-20T03:01:37.845Z,50.36
2018-04-20T03:02:37.823Z,50.36
2018-04-20T03:03:37.800Z,50.36
2018-04-20T03:04:37.781Z,50.36
2018-04-20T03:05:37.772Z,49.88
2018-04-20T03:06:37.736Z,50.36
2018-04-20T03:07:37.723Z,49.98
2018-04-20T03:08:37.695Z,50.17
2018-04-20T03:09:37.674Z,50.17
2018-04-20T03:10:37.775Z,50.26
2018-04-20T03:11:37.634Z,50.26
2018-04-20T03:12:37.613Z,50.17
2018-04-20T03:13:37.591Z,50.07
2018-04-20T03:14:37.574Z,49.98
2018-04-20T03:15:37.551Z,49.88
2018-04-20T03:16:37.528Z,49.98
2018-04-20T03:17:37.514Z,49.79
2018-04-20T03:18:37.487Z,49.81
2018-04-20T03:19:37.468Z,49.02
2018-04-20T03:20:37.443Z,49.4
2018-04-20T03:21:37.427Z,49.31
2018-04-20T03:22:37.411Z,49.6
2018-04-20T03:23:37.383Z,48.83
2018-04-20T03:24:37.116Z,49.6
2018-04-20T03:25:37.096Z,49.71
2018-04-20T03:26:37.322Z,48.93
2018-04-20T03:27:37.053Z,48.93
2018-04-20T03:28:37.285Z,49.69
2018-04-20T03:29:37.259Z,49.6
2018-04-20T03:30:37.242Z,49.79
2018-04-20T03:31:37.222Z,49.21
2018-04-20T03:32:37.200Z,48.83
2018-04-20T03:33:37.178Z,49.02
2018-04-20T03:34:37.159Z,48.83
2018-04-20T03:35:37.137Z,48.38
2018-04-20T03:36:36.867Z,48.57
2018-04-20T03:37:37.097Z,48.47
2018-04-20T03:38:37.087Z,48.66
2018-04-20T03:39:37.055Z,47.89
2018-04-20T03:40:37.039Z,47.89
2018-04-20T03:41:37.018Z,47.8
2018-04-20T03:42:36.995Z,47.51
2018-04-20T03:43:36.974Z,47.32
2018-04-20T03:44:36.951Z,47.89
2018-04-20T03:45:36.684Z,47.42
2018-04-20T03:46:36.914Z,47.42
2018-04-20T03:47:36.892Z,47.8
2018-04-20T03:48:36.872Z,47.13
2018-04-20T03:49:36.849Z,46.84
2018-04-20T03:50:36.831Z,47.32
2018-04-20T03:51:36.562Z,46.84
2018-04-20T03:52:36.790Z,47.61
2018-04-20T03:53:36.764Z,49.62
2018-04-20T03:54:36.745Z,50
2018-04-20T03:55:36.734Z,51.25
2018-04-20T03:56:36.712Z,51.61
2018-04-20T03:57:36.686Z,51.79
2018-04-20T03:58:36.666Z,52.37
2018-04-20T03:59:36.647Z,52.28
2018-04-20T04:00:36.628Z,52.37
2018-04-20T04:01:36.608Z,52.85
2018-04-20T04:02:36.584Z,53.14
2018-04-20T04:03:36.564Z,52.54
2018-04-20T04:04:36.543Z,52.25
2018-04-20T04:05:36.275Z,52.06
2018-04-20T04:06:36.501Z,52.06
2018-04-20T04:07:36.480Z,51.99
2018-04-20T04:08:36.460Z,51.77
2018-04-20T04:09:36.442Z,51.7
2018-04-20T04:10:36.419Z,51.68
2018-04-20T04:11:36.401Z,51.61
2018-04-20T04:12:36.573Z,51.58
2018-04-20T04:13:36.107Z,52.25
2018-04-20T04:14:36.342Z,51.51
2018-04-20T04:15:36.443Z,51.29
2018-04-20T04:16:36.293Z,51.51
2018-04-20T04:17:36.027Z,51.7
2018-04-20T04:18:36.259Z,51.13
2018-04-20T04:19:36.234Z,51.48
2018-04-20T04:20:36.210Z,51.1
2018-04-20T04:21:36.193Z,51.42
2018-04-20T04:22:36.182Z,50.72
2018-04-20T04:23:35.904Z,50.72
2018-04-20T04:24:35.925Z,51.2
2018-04-20T04:25:36.111Z,50.52
2018-04-20T04:26:36.088Z,51.29
2018-04-20T04:27:36.069Z,50.72
2018-04-20T04:28:36.050Z,50.91
2018-04-20T04:29:36.034Z,50.43
2018-04-20T04:30:35.758Z,50.34
2018-04-20T04:31:35.983Z,50.15
2018-04-20T04:32:35.966Z,50.34
2018-04-20T04:33:35.943Z,50.62
2018-04-20T04:34:35.927Z,50.43
2018-04-20T04:35:35.901Z,50.72
2018-04-20T04:36:35.881Z,50.15
2018-04-20T04:37:35.862Z,50.15
2018-04-20T04:38:35.841Z,50.34
2018-04-20T04:39:35.824Z,49.86
2018-04-20T04:40:35.804Z,50.34
2018-04-20T04:41:35.779Z,49.86
2018-04-20T04:42:35.760Z,49.95
2018-04-20T04:43:35.739Z,49.76
2018-04-20T04:44:35.716Z,49.79
2018-04-20T04:45:35.698Z,49.79
2018-04-20T04:46:35.676Z,50.07
2018-04-20T04:47:35.656Z,49.86
2018-04-20T04:48:35.575Z,49.88
2018-04-20T04:49:35.849Z,50.15
2018-04-20T04:50:36.092Z,50.34
2018-04-20T04:51:35.570Z,50.36
2018-04-20T04:52:35.556Z,50.93
2018-04-20T04:53:35.288Z,50.72
2018-04-20T04:54:35.516Z,51.32
2018-04-20T04:55:35.487Z,50.74
2018-04-20T04:56:35.472Z,50.91
2018-04-20T04:57:35.450Z,50.46
2018-04-20T04:58:35.181Z,49.88
2018-04-20T04:59:35.409Z,49.98
2018-04-20T05:00:35.391Z,49.98
2018-04-20T05:01:35.365Z,50.17
2018-04-20T05:02:35.345Z,49.79
2018-04-20T05:03:35.397Z,49.79
2018-04-20T05:04:35.055Z,49.69
2018-04-20T05:05:35.286Z,49.11
2018-04-20T05:06:35.015Z,49.4
2018-04-20T05:07:35.244Z,48.95
2018-04-20T05:08:35.220Z,48.75
2018-04-20T05:09:35.203Z,48.66
2018-04-20T05:10:35.178Z,48.57
2018-04-20T05:11:34.914Z,48.18
2018-04-20T05:12:35.140Z,47.99
2018-04-20T05:13:35.127Z,47.51
2018-04-20T05:14:35.100Z,47.71
2018-04-20T05:15:35.084Z,47.13
2018-04-20T05:16:34.814Z,47.42
2018-04-20T05:17:35.039Z,47.06
2018-04-20T05:18:35.026Z,46.58
2018-04-20T05:19:35.005Z,46.19
2018-04-20T05:20:34.980Z,46.19
2018-04-20T05:21:34.961Z,46
2018-04-20T05:22:35.057Z,45.43
2018-04-20T05:23:34.922Z,45.23
2018-04-20T05:24:34.658Z,45.33
2018-04-20T05:25:34.885Z,45.54
2018-04-20T05:26:34.864Z,44.97
2018-04-20T05:27:34.847Z,45.26
2018-04-20T05:28:34.824Z,44.78
2018-04-20T05:29:34.804Z,44.87
2018-04-20T05:30:34.538Z,44.68
2018-04-20T05:31:34.813Z,44.49
2018-04-20T05:32:34.748Z,44.11
2018-04-20T05:33:34.478Z,44.3
2018-04-20T05:34:34.458Z,44.01
2018-04-20T05:35:34.689Z,43.91
2018-04-20T05:36:34.672Z,44.11
2018-04-20T05:37:34.653Z,44.01
2018-04-20T05:38:34.628Z,43.82
2018-04-20T05:39:34.618Z,43.44
2018-04-20T05:40:34.591Z,43.46
2018-04-20T05:41:34.570Z,43.55
2018-04-20T05:42:34.306Z,43.65
2018-04-20T05:43:34.537Z,43.74
2018-04-20T05:44:34.268Z,43.65
2018-04-20T05:45:34.497Z,43.74
2018-04-20T05:46:34.479Z,43.36
2018-04-20T05:47:34.458Z,43.27
2018-04-20T05:48:34.194Z,43.55
2018-04-20T05:49:34.422Z,43.84
2018-04-20T05:50:34.151Z,43.55
2018-04-20T05:51:34.384Z,43.74
2018-04-20T05:52:34.366Z,44.03
2018-04-20T05:53:34.343Z,44.32
2018-04-20T05:54:34.325Z,44.13
2018-04-20T05:55:34.060Z,44.61
2018-04-20T05:56:34.299Z,45
2018-04-20T05:57:34.026Z,45
2018-04-20T05:58:34.255Z,45.57
2018-04-20T05:59:33.987Z,45.28
2018-04-20T06:00:34.225Z,45.67
2018-04-20T06:01:34.199Z,46.05
2018-04-20T06:02:34.181Z,46.05
2018-04-20T06:03:34.164Z,46.43
2018-04-20T06:04:34.144Z,46.72
2018-04-20T06:05:34.125Z,46.81
2018-04-20T06:06:34.106Z,47.39
2018-04-20T06:07:34.095Z,47.49
2018-04-20T06:08:34.221Z,47.49
2018-04-20T06:09:34.058Z,47.77
2018-04-20T06:10:34.040Z,48.16
2018-04-20T06:11:34.023Z,48.83
2018-04-20T06:12:33.996Z,48.74
2018-04-20T06:13:34.029Z,48.83
2018-04-20T06:14:33.723Z,48.83
2018-04-20T06:15:33.950Z,49.02
2018-04-20T06:16:34.335Z,49.5
2018-04-20T06:17:34.024Z,49.31
2018-04-20T06:18:34.077Z,49.5
2018-04-20T06:19:33.633Z,48.93
2018-04-20T06:20:33.910Z,49.41
2018-04-20T06:21:33.899Z,49.05
2018-04-20T06:22:33.821Z,49.15
2018-04-20T06:23:33.802Z,49.52
2018-04-20T06:24:33.786Z,49.72
2018-04-20T06:25:33.772Z,48.88
2018-04-20T06:26:33.753Z,48.69
2018-04-20T06:27:33.734Z,48.49
2018-04-20T06:28:33.954Z,47.63
2018-04-20T06:29:33.452Z,47.63
2018-04-20T06:30:33.682Z,48.11
2018-04-20T06:31:33.664Z,47.72
2018-04-20T06:32:33.404Z,47.46
2018-04-20T06:33:33.386Z,47.36
2018-04-20T06:34:33.371Z,47.08
2018-04-20T06:35:33.601Z,46.31
2018-04-20T06:36:33.590Z,45.83
2018-04-20T06:37:33.571Z,45.56
2018-04-20T06:38:33.556Z,45.28
2018-04-20T06:39:33.541Z,45.18
2018-04-20T06:40:33.527Z,44.12
2018-04-20T06:41:33.512Z,43.54
2018-04-20T06:42:33.499Z,43.28
2018-04-20T06:43:33.483Z,42.89
2018-04-20T06:44:33.470Z,42.03
2018-04-20T06:45:33.454Z,41.83
2018-04-20T06:46:33.438Z,41.56
2018-04-20T06:47:33.180Z,40.89
2018-04-20T06:48:33.413Z,40.61
2018-04-20T06:49:33.152Z,40.51
2018-04-20T06:50:33.385Z,39.74
2018-04-20T06:51:33.390Z,39.45
2018-04-20T06:52:33.108Z,39.45
2018-04-20T06:53:33.095Z,38.87
2018-04-20T06:54:33.334Z,38.79
2018-04-20T06:55:33.071Z,38.79
2018-04-20T06:56:33.050Z,38.31
2018-04-20T06:57:33.039Z,38.12
2018-04-20T06:58:33.322Z,37.93
2018-04-20T06:59:33.260Z,37.45
2018-04-20T07:00:32.999Z,37.35
2018-04-20T07:01:32.983Z,36.99
2018-04-20T07:02:33.223Z,36.79
2018-04-20T07:03:32.960Z,36.11
2018-04-20T07:04:33.191Z,36.21
2018-04-20T07:05:32.933Z,35.93
2018-04-20T07:06:32.923Z,35.65
2018-04-20T07:07:33.163Z,35.17
2018-04-20T07:08:32.903Z,35.17
2018-04-20T07:09:33.133Z,35.17
2018-04-20T07:10:33.131Z,34.78
2018-04-20T07:11:32.857Z,34.3
2018-04-20T07:12:33.174Z,34.61
2018-04-20T07:13:33.091Z,34.61
2018-04-20T07:14:33.068Z,34.52
2018-04-20T07:15:33.069Z,34.61
2018-04-20T07:16:33.626Z,34.61
2018-04-20T07:17:34.304Z,34.61
2018-04-20T07:18:33.028Z,34.22
2018-04-20T07:19:33.016Z,34.03
2018-04-20T07:20:32.748Z,34.13
2018-04-20T07:21:32.987Z,34.52
2018-04-20T07:22:32.732Z,34.32
2018-04-20T07:23:32.967Z,33.84
2018-04-20T07:24:32.952Z,33.76
2018-04-20T07:25:32.690Z,34.05
2018-04-20T07:26:32.801Z,33.76
2018-04-20T07:27:32.914Z,33.95
2018-04-20T07:28:33.097Z,33.48
2018-04-20T07:29:32.894Z,33.2
2018-04-20T07:30:32.879Z,33.1
2018-04-20T07:31:32.877Z,33
2018-04-20T07:32:32.614Z,32.82
2018-04-20T07:33:33.815Z,32.73
2018-04-20T07:34:32.845Z,32.64
2018-04-20T07:35:32.835Z,32.54
2018-04-20T07:36:32.826Z,32.46
2018-04-20T07:37:32.811Z,32.17
2018-04-20T07:38:32.800Z,32.17
2018-04-20T07:39:32.798Z,32.07
2018-04-20T07:40:32.780Z,31.88
2018-04-20T07:41:32.964Z,31.88
2018-04-20T07:42:32.763Z,31.88
2018-04-20T07:43:32.800Z,31.6
2018-04-20T07:44:33.538Z,31.6
2018-04-20T07:45:33.709Z,31.31
2018-04-20T07:46:32.723Z,31.41
2018-04-20T07:47:32.718Z,31.02
2018-04-20T07:48:32.703Z,31.02
2018-04-20T07:49:32.695Z,30.65
2018-04-20T07:50:32.684Z,30.85
2018-04-20T07:51:32.676Z,30.75
2018-04-20T07:52:32.672Z,30.46
2018-04-20T07:53:32.660Z,30.65
2018-04-20T07:54:32.651Z,30.17
2018-04-20T07:55:32.645Z,30.17
2018-04-20T07:56:32.631Z,29.99
2018-04-20T07:57:32.817Z,29.99
2018-04-20T07:58:33.279Z,29.9
2018-04-20T07:59:33.308Z,29.7
2018-04-20T08:00:33.225Z,29.6
2018-04-20T08:01:32.815Z,29.8
2018-04-20T08:02:33.489Z,29.6
2018-04-20T08:03:33.225Z,29.7
2018-04-20T08:04:33.024Z,29.7
2018-04-20T08:05:32.533Z,29.6
2018-04-20T08:06:32.308Z,29.6
2018-04-20T08:07:32.539Z,29.7
2018-04-20T08:08:32.531Z,29.7
2018-04-20T08:09:32.528Z,29.6
2018-04-20T08:10:32.522Z,29.6
2018-04-20T08:11:32.544Z,29.6
2018-04-20T08:12:32.529Z,29.6
2018-04-20T08:13:32.525Z,29.6
2018-04-20T08:14:32.486Z,29.6
2018-04-20T08:15:32.479Z,29.5
2018-04-20T08:16:32.469Z,29.61
2018-04-20T08:17:32.472Z,29.61
2018-04-20T08:18:32.453Z,29.9
2018-04-20T08:19:32.468Z,29.9
2018-04-20T08:20:32.201Z,29.8
2018-04-20T08:21:32.457Z,29.43
2018-04-20T08:22:32.419Z,29.5
2018-04-20T08:23:32.450Z,29.8
2018-04-20T08:24:32.399Z,29.6
2018-04-20T08:25:32.443Z,29.41
2018-04-20T08:26:32.378Z,29.5
2018-04-20T08:27:32.369Z,29.5
2018-04-20T08:28:32.368Z,29.61
2018-04-20T08:29:32.353Z,29.43
2018-04-20T08:30:32.355Z,29.43
2018-04-20T08:31:32.338Z,29.33
2018-04-20T08:32:32.319Z,29.33
2018-04-20T08:33:32.325Z,29.23
2018-04-20T08:34:32.306Z,29.33
2018-04-20T08:35:32.338Z,29.23
2018-04-20T08:36:32.289Z,29.33
2018-04-20T08:37:32.028Z,29.23
2018-04-20T08:38:32.275Z,29.23
2018-04-20T08:39:32.016Z,29.33
2018-04-20T08:40:32.251Z,29.03
2018-04-20T08:41:32.335Z,29.24
2018-04-20T08:42:32.234Z,29.24
2018-04-20T08:43:32.226Z,29.15
2018-04-20T08:44:32.226Z,29.34
2018-04-20T08:45:32.216Z,29.15
2018-04-20T08:46:32.207Z,29.24
2018-04-20T08:47:32.199Z,29.15
2018-04-20T08:48:32.193Z,29.24
2018-04-20T08:49:32.183Z,29.15
2018-04-20T08:50:32.180Z,29.44
2018-04-20T08:51:32.168Z,29.34
2018-04-20T08:52:31.912Z,29.34
2018-04-20T08:53:32.154Z,29.15
2018-04-20T08:54:31.904Z,29.15
2018-04-20T08:55:32.144Z,29.24
2018-04-20T08:56:32.133Z,29.05
2018-04-20T08:57:32.130Z,28.97
2018-04-20T08:58:32.119Z,28.97
2018-04-20T08:59:32.111Z,28.87
2018-04-20T09:00:32.101Z,28.87
2018-04-20T09:01:32.096Z,28.97
2018-04-20T09:02:32.086Z,28.49
2018-04-20T09:03:32.080Z,28.49
2018-04-20T09:04:32.071Z,29.06
2018-04-20T09:05:32.068Z,29.26
2018-04-20T09:06:31.808Z,29.16
2018-04-20T09:07:31.802Z,29.16
2018-04-20T09:08:31.793Z,28.97
2018-04-20T09:09:32.040Z,28.87
2018-04-20T09:10:32.028Z,28.87
2018-04-20T09:11:32.016Z,28.49
2018-04-20T09:12:32.012Z,28.77
2018-04-20T09:13:31.976Z,28.97
2018-04-20T09:14:32.134Z,29.16
2018-04-20T09:15:31.985Z,29.36
2018-04-20T09:16:31.974Z,29.36
2018-04-20T09:17:31.913Z,29.36
2018-04-20T09:18:31.970Z,29.26
2018-04-20T09:19:32.113Z,29.26
2018-04-20T09:20:32.002Z,29.17
2018-04-20T09:21:31.925Z,29.27
2018-04-20T09:22:31.917Z,29.08
2018-04-20T09:23:31.908Z,28.98
2018-04-20T09:24:32.707Z,28.89
2018-04-20T09:25:31.889Z,29.08
2018-04-20T09:26:31.876Z,29.08
2018-04-20T09:27:31.863Z,29.08
2018-04-20T09:28:31.858Z,29.27
2018-04-20T09:29:31.845Z,29.27
2018-04-20T09:30:31.838Z,29.17
2018-04-20T09:31:31.833Z,29.28
2018-04-20T09:32:31.815Z,29.28
2018-04-20T09:33:31.807Z,29.28
2018-04-20T09:34:31.799Z,29.27
2018-04-20T09:35:32.510Z,29.28
2018-04-20T09:36:31.814Z,29.19
2018-04-20T09:37:31.517Z,29.27
2018-04-20T09:38:31.752Z,29.19
2018-04-20T09:39:31.745Z,29.1
2018-04-20T09:40:31.732Z,29.19
2018-04-20T09:41:31.722Z,29.19
2018-04-20T09:42:31.719Z,29.28
2018-04-20T09:43:31.704Z,29.1
2018-04-20T09:44:31.694Z,29.19
2018-04-20T09:45:31.506Z,29.28
2018-04-20T09:46:31.669Z,29.28
2018-04-20T09:47:31.659Z,29.19
2018-04-20T09:48:31.656Z,29.1
2018-04-20T09:49:31.933Z,29.28
2018-04-20T09:50:31.628Z,29.28
2018-04-20T09:51:31.642Z,29.1
2018-04-20T09:52:31.605Z,29.38
2018-04-20T09:53:31.647Z,29.28
2018-04-20T09:54:31.585Z,29.19
2018-04-20T09:55:31.324Z,29.19
2018-04-20T09:56:31.563Z,29.19
2018-04-20T09:57:31.304Z,28.9
2018-04-20T09:58:31.603Z,29.1
2018-04-20T09:59:31.529Z,29.38
2018-04-20T10:00:31.562Z,29.1
2018-04-20T10:01:31.506Z,29.1
2018-04-20T10:02:31.505Z,29
2018-04-20T10:03:31.238Z,28.51
2018-04-20T10:04:31.475Z,28.7
2018-04-20T10:05:31.246Z,28.63
2018-04-20T10:06:31.454Z,28.61
2018-04-20T10:07:31.200Z,28.72
2018-04-20T10:08:31.438Z,28.8
2018-04-20T10:09:31.424Z,28.8
2018-04-20T10:10:31.417Z,28.81
2018-04-20T10:11:31.849Z,28.72
2018-04-20T10:12:31.397Z,28.72
2018-04-20T10:13:31.450Z,28.63
2018-04-20T10:14:31.371Z,28.63
2018-04-20T10:15:31.361Z,28.44
2018-04-20T10:16:31.353Z,28.44
2018-04-20T10:17:31.336Z,28.05
2018-04-20T10:18:31.327Z,28.15
2018-04-20T10:19:31.328Z,28.05
2018-04-20T10:20:31.057Z,28.05
2018-04-20T10:21:31.292Z,27.96
2018-04-20T10:22:31.289Z,28.15
2018-04-20T10:23:31.275Z,28.15
2018-04-20T10:24:31.264Z,28.05
2018-04-20T10:25:31.256Z,27.96
2018-04-20T10:26:31.063Z,28.05
2018-04-20T10:27:31.235Z,28.05
2018-04-20T10:28:31.223Z,28.05
2018-04-20T10:29:31.216Z,28.25
2018-04-20T10:30:30.951Z,28.15
2018-04-20T10:31:30.941Z,28.25
2018-04-20T10:32:30.929Z,28.25
2018-04-20T10:33:31.187Z,28.34
2018-04-20T10:34:31.158Z,28.05
2018-04-20T10:35:31.147Z,27.96
2018-04-20T10:36:31.136Z,27.67
2018-04-20T10:37:31.128Z,27.67
2018-04-20T10:38:31.113Z,27.67
2018-04-20T10:39:31.106Z,27.57
2018-04-20T10:40:32.307Z,27.76
2018-04-20T10:41:30.833Z,27.76
2018-04-20T10:42:31.073Z,27.57
2018-04-20T10:43:31.063Z,27.37
2018-04-20T10:44:31.052Z,27.37
2018-04-20T10:45:31.042Z,27.37
2018-04-20T10:46:31.032Z,27.28
2018-04-20T10:47:31.025Z,27.39
2018-04-20T10:48:31.092Z,27.29
2018-04-20T10:49:30.997Z,27.19
2018-04-20T10:50:30.986Z,27.29
2018-04-20T10:51:30.978Z,27.39
2018-04-20T10:52:30.725Z,27.19
2018-04-20T10:53:30.953Z,27.1
2018-04-20T10:54:30.946Z,26.9
2018-04-20T10:55:30.687Z,27.01
2018-04-20T10:56:31.062Z,26.62
2018-04-20T10:57:30.916Z,26.53
2018-04-20T10:58:30.909Z,26.33
2018-04-20T10:59:30.897Z,26.33
2018-04-20T11:00:30.642Z,26.43
2018-04-20T11:01:30.875Z,26.43
2018-04-20T11:02:30.865Z,26.15
2018-04-20T11:03:30.964Z,26.04
2018-04-20T11:04:30.845Z,25.96
2018-04-20T11:05:30.835Z,26.06
2018-04-20T11:06:30.822Z,26.15
2018-04-20T11:07:30.827Z,26.43
2018-04-20T11:08:30.803Z,26.14
2018-04-20T11:09:30.793Z,26.23
2018-04-20T11:10:30.786Z,26.33
2018-04-20T11:11:30.894Z,26.33
2018-04-20T11:12:30.768Z,26.43
2018-04-20T11:13:30.750Z,26.43
2018-04-20T11:14:30.743Z,26.33
2018-04-20T11:15:30.733Z,26.14
2018-04-20T11:16:30.724Z,26.43
2018-04-20T11:17:30.464Z,26.04
2018-04-20T11:18:30.705Z,25.85
2018-04-20T11:19:30.690Z,25.75
2018-04-20T11:20:30.684Z,25.65
2018-04-20T11:21:30.680Z,25.57
2018-04-20T11:22:30.666Z,25.18
2018-04-20T11:23:30.406Z,25.08
2018-04-20T11:24:30.392Z,25.18
2018-04-20T11:25:30.383Z,24.9
2018-04-20T11:26:30.372Z,24.41
2018-04-20T11:27:30.617Z,24.51
2018-04-20T11:28:30.602Z,24.41
2018-04-20T11:29:30.345Z,24.12
2018-04-20T11:30:30.583Z,24.02
2018-04-20T11:31:30.583Z,23.83
2018-04-20T11:32:30.565Z,23.63
2018-04-20T11:33:30.307Z,23.35
2018-04-20T11:34:30.545Z,23.24
2018-04-20T11:35:30.538Z,23.24
2018-04-20T11:36:30.541Z,23.33
2018-04-20T11:37:30.514Z,23.43
2018-04-20T11:38:30.253Z,23.43
2018-04-20T11:39:30.248Z,23.33
2018-04-20T11:40:30.236Z,23.33
2018-04-20T11:41:30.226Z,23.43
2018-04-20T11:42:30.470Z,23.43
2018-04-20T11:43:30.456Z,23.33
2018-04-20T11:44:30.196Z,23.24
2018-04-20T11:45:30.435Z,23.25
2018-04-20T11:46:30.423Z,23.15
2018-04-20T11:47:30.420Z,23.05
2018-04-20T11:48:30.404Z,23.25
2018-04-20T11:49:30.398Z,23.05
2018-04-20T11:50:30.390Z,22.86
2018-04-20T11:51:30.380Z,22.96
2018-04-20T11:52:30.371Z,22.47
2018-04-20T11:53:30.111Z,22.27
2018-04-20T11:54:30.100Z,22.38
2018-04-20T11:55:30.091Z,22.38
2018-04-20T11:56:30.341Z,21.89
2018-04-20T11:57:30.321Z,21.8
2018-04-20T11:58:30.310Z,21.89
2018-04-20T11:59:30.053Z,21.5
2018-04-20T12:00:30.041Z,21.02
2018-04-20T12:01:30.034Z,21.02
2018-04-20T12:02:30.025Z,21.31
2018-04-20T12:03:30.264Z,21.4
2018-04-20T12:04:30.252Z,21.69
2018-04-20T12:05:30.245Z,21.7
2018-04-20T12:06:30.287Z,21.88
2018-04-20T12:07:30.226Z,21.88
2018-04-20T12:08:30.214Z,21.59
2018-04-20T12:09:30.212Z,21.98
2018-04-20T12:10:30.197Z,21.8
2018-04-20T12:11:30.187Z,21.88
2018-04-20T12:12:30.177Z,22.28
2018-04-20T12:13:31.287Z,22.28
2018-04-20T12:14:30.170Z,22.38
2018-04-20T12:15:30.350Z,22.38
2018-04-20T12:16:30.142Z,22.58
2018-04-20T12:17:30.137Z,22.67
2018-04-20T12:18:30.122Z,22.67
2018-04-20T12:19:30.112Z,22.67
2018-04-20T12:20:30.101Z,22.69
2018-04-20T12:21:30.091Z,22.88
2018-04-20T12:22:30.085Z,22.88
2018-04-20T12:23:29.841Z,22.88
2018-04-20T12:24:30.065Z,22.67
2018-04-20T12:25:29.807Z,22.1
2018-04-20T12:26:29.802Z,22.39
2018-04-20T12:27:30.212Z,22.1
2018-04-20T12:28:29.779Z,21.92
2018-04-20T12:29:30.021Z,21.82
2018-04-20T12:30:30.011Z,21.33
2018-04-20T12:31:30.045Z,21.23
2018-04-20T12:32:29.991Z,21.12
2018-04-20T12:33:30.005Z,21.03
2018-04-20T12:34:29.980Z,21.51
2018-04-20T12:35:30.002Z,21.42
2018-04-20T12:36:29.960Z,21.42
2018-04-20T12:37:30.049Z,21.12
2018-04-20T12:38:29.689Z,21.12
2018-04-20T12:39:29.932Z,20.64
2018-04-20T12:40:29.922Z,21.03
2018-04-20T12:41:29.912Z,20.64
2018-04-20T12:42:29.907Z,20.83
2018-04-20T12:43:29.642Z,20.83
2018-04-20T12:44:29.635Z,20.93
2018-04-20T12:45:29.879Z,20.93
2018-04-20T12:46:29.865Z,21.42
2018-04-20T12:47:29.861Z,21.03
2018-04-20T12:48:29.595Z,20.93
2018-04-20T12:49:29.590Z,21.03
2018-04-20T12:50:29.577Z,20.55
2018-04-20T12:51:29.819Z,20.55
2018-04-20T12:52:29.810Z,20.55
2018-04-20T12:53:29.553Z,20.86
2018-04-20T12:54:29.792Z,20.75
2018-04-20T12:55:29.782Z,20.65
2018-04-20T12:56:29.525Z,20.75